sensor_id;sensor_type;location;lat;lon;timestamp;P1;durP1;ratioP1;P2;durP2;ratioP2
63555;SDS011;49700;48.072;7.800;2024-01-07T00:01:00;9.37;;;5.73;;
63555;SDS011;49700;48.072;7.800;2024-01-07T00:03:27;6.40;;;4.70;;
63555;SDS011;49700;48.072;7.800;2024-01-07T00:05:52;7.20;;;5.00;;
63555;SDS011;49700;48.072;7.800;2024-01-07T00:08:17;8.02;;;5.30;;
63555;SDS011;49700;48.072;7.800;2024-01-07T00:10:43;8.93;;;6.00;;
63555;SDS011;49700;48.072;7.800;2024-01-07T00:13:08;9.90;;;6.97;;
63555;SDS011;49700;48.072;7.800;2024-01-07T00:15:33;9.80;;;6.60;;
63555;SDS011;49700;48.072;7.800;2024-01-07T00:17:59;9.83;;;5.90;;
63555;SDS011;49700;48.072;7.800;2024-01-07T00:20:24;7.30;;;4.90;;
63555;SDS011;49700;48.072;7.800;2024-01-07T00:22:49;9.73;;;5.83;;
63555;SDS011;49700;48.072;7.800;2024-01-07T00:25:15;8.37;;;6.10;;
63555;SDS011;49700;48.072;7.800;2024-01-07T00:27:40;8.93;;;6.60;;
63555;SDS011;49700;48.072;7.800;2024-01-07T00:30:06;6.63;;;5.13;;
63555;SDS011;49700;48.072;7.800;2024-01-07T00:32:33;12.73;;;6.25;;
63555;SDS011;49700;48.072;7.800;2024-01-07T00:35:01;8.07;;;6.10;;
63555;SDS011;49700;48.072;7.800;2024-01-07T00:37:27;7.50;;;5.47;;
63555;SDS011;49700;48.072;7.800;2024-01-07T00:39:53;11.03;;;6.87;;
63555;SDS011;49700;48.072;7.800;2024-01-07T00:42:18;11.07;;;6.30;;
63555;SDS011;49700;48.072;7.800;2024-01-07T00:44:44;10.43;;;7.80;;
63555;SDS011;49700;48.072;7.800;2024-01-07T00:47:10;9.33;;;7.10;;
63555;SDS011;49700;48.072;7.800;2024-01-07T00:49:35;10.77;;;6.80;;
63555;SDS011;49700;48.072;7.800;2024-01-07T00:52:00;8.90;;;5.93;;
63555;SDS011;49700;48.072;7.800;2024-01-07T00:54:26;12.27;;;6.57;;
63555;SDS011;49700;48.072;7.800;2024-01-07T00:56:51;7.80;;;6.63;;
63555;SDS011;49700;48.072;7.800;2024-01-07T00:59:16;8.37;;;5.33;;
63555;SDS011;49700;48.072;7.800;2024-01-07T01:01:42;8.10;;;5.37;;
63555;SDS011;49700;48.072;7.800;2024-01-07T01:04:07;8.17;;;6.43;;
63555;SDS011;49700;48.072;7.800;2024-01-07T01:06:32;7.73;;;5.33;;
63555;SDS011;49700;48.072;7.800;2024-01-07T01:08:58;10.03;;;7.23;;
63555;SDS011;49700;48.072;7.800;2024-01-07T01:11:23;10.03;;;6.97;;
63555;SDS011;49700;48.072;7.800;2024-01-07T01:13:49;7.33;;;6.57;;
63555;SDS011;49700;48.072;7.800;2024-01-07T01:16:14;10.50;;;6.03;;
63555;SDS011;49700;48.072;7.800;2024-01-07T01:18:39;9.90;;;5.63;;
63555;SDS011;49700;48.072;7.800;2024-01-07T01:21:05;11.20;;;7.27;;
63555;SDS011;49700;48.072;7.800;2024-01-07T01:23:30;12.40;;;7.97;;
63555;SDS011;49700;48.072;7.800;2024-01-07T01:25:56;9.77;;;6.50;;
63555;SDS011;49700;48.072;7.800;2024-01-07T01:28:21;7.73;;;5.37;;
63555;SDS011;49700;48.072;7.800;2024-01-07T01:30:46;8.10;;;5.43;;
63555;SDS011;49700;48.072;7.800;2024-01-07T01:33:12;12.80;;;7.20;;
63555;SDS011;49700;48.072;7.800;2024-01-07T01:35:38;8.52;;;5.75;;
63555;SDS011;49700;48.072;7.800;2024-01-07T01:38:03;10.07;;;6.50;;
63555;SDS011;49700;48.072;7.800;2024-01-07T01:40:29;9.37;;;6.03;;
63555;SDS011;49700;48.072;7.800;2024-01-07T01:42:54;10.73;;;7.33;;
63555;SDS011;49700;48.072;7.800;2024-01-07T01:45:19;10.13;;;6.07;;
63555;SDS011;49700;48.072;7.800;2024-01-07T01:47:45;8.33;;;5.40;;
63555;SDS011;49700;48.072;7.800;2024-01-07T01:50:12;8.00;;;4.95;;
63555;SDS011;49700;48.072;7.800;2024-01-07T01:52:38;9.95;;;6.65;;
63555;SDS011;49700;48.072;7.800;2024-01-07T01:55:07;11.52;;;6.22;;
63555;SDS011;49700;48.072;7.800;2024-01-07T01:57:34;9.18;;;6.10;;
63555;SDS011;49700;48.072;7.800;2024-01-07T02:00:06;10.77;;;7.65;;
63555;SDS011;49700;48.072;7.800;2024-01-07T02:02:33;10.55;;;5.80;;
63555;SDS011;49700;48.072;7.800;2024-01-07T02:05:02;12.10;;;7.67;;
63555;SDS011;49700;48.072;7.800;2024-01-07T02:07:28;9.20;;;6.53;;
63555;SDS011;49700;48.072;7.800;2024-01-07T02:09:55;11.98;;;6.95;;
63555;SDS011;49700;48.072;7.800;2024-01-07T02:12:21;9.10;;;6.30;;
63555;SDS011;49700;48.072;7.800;2024-01-07T02:14:49;10.65;;;5.65;;
63555;SDS011;49700;48.072;7.800;2024-01-07T02:17:15;8.50;;;5.90;;
63555;SDS011;49700;48.072;7.800;2024-01-07T02:19:41;10.30;;;6.13;;
63555;SDS011;49700;48.072;7.800;2024-01-07T02:22:06;9.33;;;5.77;;
63555;SDS011;49700;48.072;7.800;2024-01-07T02:24:32;6.63;;;4.60;;
63555;SDS011;49700;48.072;7.800;2024-01-07T02:26:57;6.33;;;3.87;;
63555;SDS011;49700;48.072;7.800;2024-01-07T02:29:27;8.00;;;5.00;;
63555;SDS011;49700;48.072;7.800;2024-01-07T02:31:53;7.65;;;4.05;;
63555;SDS011;49700;48.072;7.800;2024-01-07T02:34:18;6.50;;;4.10;;
63555;SDS011;49700;48.072;7.800;2024-01-07T02:36:44;7.47;;;4.07;;
63555;SDS011;49700;48.072;7.800;2024-01-07T02:39:09;7.97;;;5.40;;
63555;SDS011;49700;48.072;7.800;2024-01-07T02:41:35;5.50;;;3.77;;
63555;SDS011;49700;48.072;7.800;2024-01-07T02:44:00;7.00;;;4.07;;
63555;SDS011;49700;48.072;7.800;2024-01-07T02:46:25;6.20;;;4.33;;
63555;SDS011;49700;48.072;7.800;2024-01-07T02:48:51;4.77;;;3.93;;
63555;SDS011;49700;48.072;7.800;2024-01-07T02:51:16;5.53;;;4.17;;
63555;SDS011;49700;48.072;7.800;2024-01-07T02:53:41;8.37;;;4.90;;
63555;SDS011;49700;48.072;7.800;2024-01-07T02:56:07;11.27;;;5.97;;
63555;SDS011;49700;48.072;7.800;2024-01-07T02:58:34;4.30;;;3.90;;
63555;SDS011;49700;48.072;7.800;2024-01-07T03:00:59;5.20;;;3.97;;
63555;SDS011;49700;48.072;7.800;2024-01-07T03:03:25;7.55;;;5.30;;
63555;SDS011;49700;48.072;7.800;2024-01-07T03:05:51;6.63;;;4.70;;
63555;SDS011;49700;48.072;7.800;2024-01-07T03:08:16;7.90;;;5.90;;
63555;SDS011;49700;48.072;7.800;2024-01-07T03:10:41;7.13;;;4.33;;
63555;SDS011;49700;48.072;7.800;2024-01-07T03:13:07;4.43;;;3.80;;
63555;SDS011;49700;48.072;7.800;2024-01-07T03:15:32;8.27;;;4.40;;
63555;SDS011;49700;48.072;7.800;2024-01-07T03:17:57;7.17;;;4.73;;
63555;SDS011;49700;48.072;7.800;2024-01-07T03:20:23;8.93;;;5.47;;
63555;SDS011;49700;48.072;7.800;2024-01-07T03:22:48;7.30;;;5.30;;
63555;SDS011;49700;48.072;7.800;2024-01-07T03:25:13;9.77;;;5.33;;
63555;SDS011;49700;48.072;7.800;2024-01-07T03:27:39;7.00;;;4.40;;
63555;SDS011;49700;48.072;7.800;2024-01-07T03:30:04;11.30;;;6.67;;
63555;SDS011;49700;48.072;7.800;2024-01-07T03:32:30;7.40;;;5.63;;
63555;SDS011;49700;48.072;7.800;2024-01-07T03:34:55;9.17;;;5.80;;
63555;SDS011;49700;48.072;7.800;2024-01-07T03:37:21;8.73;;;5.90;;
63555;SDS011;49700;48.072;7.800;2024-01-07T03:39:46;7.17;;;5.30;;
63555;SDS011;49700;48.072;7.800;2024-01-07T03:42:12;8.40;;;5.47;;
63555;SDS011;49700;48.072;7.800;2024-01-07T03:44:38;8.90;;;5.23;;
63555;SDS011;49700;48.072;7.800;2024-01-07T03:47:04;7.97;;;4.73;;
63555;SDS011;49700;48.072;7.800;2024-01-07T03:49:30;8.23;;;5.70;;
63555;SDS011;49700;48.072;7.800;2024-01-07T03:51:56;11.30;;;5.03;;
63555;SDS011;49700;48.072;7.800;2024-01-07T03:54:21;12.17;;;7.77;;
63555;SDS011;49700;48.072;7.800;2024-01-07T03:56:46;10.43;;;5.40;;
63555;SDS011;49700;48.072;7.800;2024-01-07T03:59:12;9.40;;;6.40;;
63555;SDS011;49700;48.072;7.800;2024-01-07T04:01:37;9.60;;;5.33;;
63555;SDS011;49700;48.072;7.800;2024-01-07T04:04:02;11.37;;;6.70;;
63555;SDS011;49700;48.072;7.800;2024-01-07T04:06:28;12.07;;;6.60;;
63555;SDS011;49700;48.072;7.800;2024-01-07T04:08:54;13.33;;;8.83;;
63555;SDS011;49700;48.072;7.800;2024-01-07T04:11:19;12.57;;;8.00;;
63555;SDS011;49700;48.072;7.800;2024-01-07T04:13:44;16.60;;;9.37;;
63555;SDS011;49700;48.072;7.800;2024-01-07T04:16:17;14.13;;;7.43;;
63555;SDS011;49700;48.072;7.800;2024-01-07T04:18:43;12.85;;;6.75;;
63555;SDS011;49700;48.072;7.800;2024-01-07T04:21:10;14.23;;;8.70;;
63555;SDS011;49700;48.072;7.800;2024-01-07T04:23:35;11.60;;;7.67;;
63555;SDS011;49700;48.072;7.800;2024-01-07T04:26:00;13.97;;;7.13;;
63555;SDS011;49700;48.072;7.800;2024-01-07T04:28:26;16.50;;;8.40;;
63555;SDS011;49700;48.072;7.800;2024-01-07T04:30:51;11.83;;;7.27;;
63555;SDS011;49700;48.072;7.800;2024-01-07T04:33:16;16.93;;;7.77;;
63555;SDS011;49700;48.072;7.800;2024-01-07T04:35:42;11.60;;;7.50;;
63555;SDS011;49700;48.072;7.800;2024-01-07T04:38:07;15.13;;;9.40;;
63555;SDS011;49700;48.072;7.800;2024-01-07T04:40:33;15.90;;;8.75;;
63555;SDS011;49700;48.072;7.800;2024-01-07T04:42:59;10.20;;;7.67;;
63555;SDS011;49700;48.072;7.800;2024-01-07T04:45:25;10.07;;;5.30;;
63555;SDS011;49700;48.072;7.800;2024-01-07T04:47:50;10.67;;;6.90;;
63555;SDS011;49700;48.072;7.800;2024-01-07T04:50:16;11.63;;;8.30;;
63555;SDS011;49700;48.072;7.800;2024-01-07T04:52:45;9.75;;;6.18;;
63555;SDS011;49700;48.072;7.800;2024-01-07T04:55:13;10.15;;;6.65;;
63555;SDS011;49700;48.072;7.800;2024-01-07T04:57:38;9.60;;;7.07;;
63555;SDS011;49700;48.072;7.800;2024-01-07T05:00:04;17.10;;;7.80;;
63555;SDS011;49700;48.072;7.800;2024-01-07T05:02:30;13.93;;;6.82;;
63555;SDS011;49700;48.072;7.800;2024-01-07T05:04:55;14.00;;;7.53;;
63555;SDS011;49700;48.072;7.800;2024-01-07T05:07:20;8.63;;;5.33;;
63555;SDS011;49700;48.072;7.800;2024-01-07T05:09:46;6.60;;;4.80;;
63555;SDS011;49700;48.072;7.800;2024-01-07T05:12:11;12.97;;;5.50;;
63555;SDS011;49700;48.072;7.800;2024-01-07T05:14:37;9.00;;;6.00;;
63555;SDS011;49700;48.072;7.800;2024-01-07T05:17:03;8.90;;;5.83;;
63555;SDS011;49700;48.072;7.800;2024-01-07T05:19:29;10.48;;;7.47;;
63555;SDS011;49700;48.072;7.800;2024-01-07T05:21:55;8.67;;;5.73;;
63555;SDS011;49700;48.072;7.800;2024-01-07T05:24:21;10.80;;;6.40;;
63555;SDS011;49700;48.072;7.800;2024-01-07T05:26:47;7.47;;;6.67;;
63555;SDS011;49700;48.072;7.800;2024-01-07T05:29:12;8.47;;;5.07;;
63555;SDS011;49700;48.072;7.800;2024-01-07T05:31:39;8.50;;;6.00;;
63555;SDS011;49700;48.072;7.800;2024-01-07T05:34:04;10.07;;;5.75;;
63555;SDS011;49700;48.072;7.800;2024-01-07T05:36:30;6.00;;;4.80;;
63555;SDS011;49700;48.072;7.800;2024-01-07T05:38:55;9.70;;;5.97;;
63555;SDS011;49700;48.072;7.800;2024-01-07T05:41:21;6.43;;;4.20;;
63555;SDS011;49700;48.072;7.800;2024-01-07T05:43:47;8.07;;;4.50;;
63555;SDS011;49700;48.072;7.800;2024-01-07T05:46:12;4.43;;;2.90;;
63555;SDS011;49700;48.072;7.800;2024-01-07T05:48:44;3.80;;;2.80;;
63555;SDS011;49700;48.072;7.800;2024-01-07T05:51:11;4.32;;;3.55;;
63555;SDS011;49700;48.072;7.800;2024-01-07T05:53:37;6.07;;;3.80;;
63555;SDS011;49700;48.072;7.800;2024-01-07T05:56:02;5.13;;;2.63;;
63555;SDS011;49700;48.072;7.800;2024-01-07T05:58:28;6.43;;;4.30;;
63555;SDS011;49700;48.072;7.800;2024-01-07T06:00:54;5.70;;;2.80;;
63555;SDS011;49700;48.072;7.800;2024-01-07T06:03:19;4.40;;;2.87;;
63555;SDS011;49700;48.072;7.800;2024-01-07T06:05:45;4.80;;;3.10;;
63555;SDS011;49700;48.072;7.800;2024-01-07T06:08:11;6.00;;;3.87;;
63555;SDS011;49700;48.072;7.800;2024-01-07T06:10:36;9.27;;;4.17;;
63555;SDS011;49700;48.072;7.800;2024-01-07T06:13:01;3.73;;;2.70;;
63555;SDS011;49700;48.072;7.800;2024-01-07T06:15:28;8.88;;;4.32;;
63555;SDS011;49700;48.072;7.800;2024-01-07T06:17:54;7.80;;;4.60;;
63555;SDS011;49700;48.072;7.800;2024-01-07T06:20:20;8.53;;;4.70;;
63555;SDS011;49700;48.072;7.800;2024-01-07T06:22:45;5.23;;;4.10;;
63555;SDS011;49700;48.072;7.800;2024-01-07T06:25:11;7.13;;;4.27;;
63555;SDS011;49700;48.072;7.800;2024-01-07T06:27:38;4.40;;;3.33;;
63555;SDS011;49700;48.072;7.800;2024-01-07T06:30:04;10.23;;;4.80;;
63555;SDS011;49700;48.072;7.800;2024-01-07T06:32:30;6.95;;;3.90;;
63555;SDS011;49700;48.072;7.800;2024-01-07T06:34:57;9.07;;;4.47;;
63555;SDS011;49700;48.072;7.800;2024-01-07T06:37:23;8.43;;;5.30;;
63555;SDS011;49700;48.072;7.800;2024-01-07T06:39:48;10.70;;;5.03;;
63555;SDS011;49700;48.072;7.800;2024-01-07T06:42:14;7.90;;;3.93;;
63555;SDS011;49700;48.072;7.800;2024-01-07T06:44:39;8.00;;;3.60;;
63555;SDS011;49700;48.072;7.800;2024-01-07T06:47:05;5.97;;;3.30;;
63555;SDS011;49700;48.072;7.800;2024-01-07T06:49:30;7.77;;;3.43;;
63555;SDS011;49700;48.072;7.800;2024-01-07T06:51:55;5.80;;;2.93;;
63555;SDS011;49700;48.072;7.800;2024-01-07T06:54:21;5.17;;;2.30;;
63555;SDS011;49700;48.072;7.800;2024-01-07T06:56:46;11.33;;;3.50;;
63555;SDS011;49700;48.072;7.800;2024-01-07T06:59:12;3.83;;;3.40;;
63555;SDS011;49700;48.072;7.800;2024-01-07T07:01:37;7.07;;;3.43;;
63555;SDS011;49700;48.072;7.800;2024-01-07T07:04:03;6.33;;;3.03;;
63555;SDS011;49700;48.072;7.800;2024-01-07T07:06:29;6.83;;;3.60;;
63555;SDS011;49700;48.072;7.800;2024-01-07T07:08:55;9.20;;;4.50;;
63555;SDS011;49700;48.072;7.800;2024-01-07T07:11:20;11.97;;;4.93;;
63555;SDS011;49700;48.072;7.800;2024-01-07T07:13:45;8.47;;;4.87;;
63555;SDS011;49700;48.072;7.800;2024-01-07T07:16:11;6.27;;;5.00;;
63555;SDS011;49700;48.072;7.800;2024-01-07T07:18:37;11.07;;;5.20;;
63555;SDS011;49700;48.072;7.800;2024-01-07T07:21:02;16.43;;;5.30;;
63555;SDS011;49700;48.072;7.800;2024-01-07T07:23:28;11.33;;;5.57;;
63555;SDS011;49700;48.072;7.800;2024-01-07T07:25:53;15.87;;;6.17;;
63555;SDS011;49700;48.072;7.800;2024-01-07T07:28:19;13.20;;;6.97;;
63555;SDS011;49700;48.072;7.800;2024-01-07T07:30:44;15.73;;;8.00;;
63555;SDS011;49700;48.072;7.800;2024-01-07T07:33:10;10.40;;;5.63;;
63555;SDS011;49700;48.072;7.800;2024-01-07T07:35:35;11.00;;;5.90;;
63555;SDS011;49700;48.072;7.800;2024-01-07T07:38:02;11.43;;;6.63;;
63555;SDS011;49700;48.072;7.800;2024-01-07T07:40:28;9.03;;;6.57;;
63555;SDS011;49700;48.072;7.800;2024-01-07T07:42:53;16.27;;;7.40;;
63555;SDS011;49700;48.072;7.800;2024-01-07T07:45:18;10.53;;;6.37;;
63555;SDS011;49700;48.072;7.800;2024-01-07T07:47:44;13.33;;;7.23;;
63555;SDS011;49700;48.072;7.800;2024-01-07T07:50:13;14.50;;;6.73;;
63555;SDS011;49700;48.072;7.800;2024-01-07T07:52:38;11.73;;;7.85;;
63555;SDS011;49700;48.072;7.800;2024-01-07T07:55:04;14.63;;;6.93;;
63555;SDS011;49700;48.072;7.800;2024-01-07T07:57:32;10.90;;;6.32;;
63555;SDS011;49700;48.072;7.800;2024-01-07T07:59:57;15.10;;;5.93;;
63555;SDS011;49700;48.072;7.800;2024-01-07T08:02:23;11.30;;;5.83;;
63555;SDS011;49700;48.072;7.800;2024-01-07T08:04:48;11.03;;;5.43;;
63555;SDS011;49700;48.072;7.800;2024-01-07T08:07:14;9.07;;;5.10;;
63555;SDS011;49700;48.072;7.800;2024-01-07T08:09:39;11.63;;;4.37;;
63555;SDS011;49700;48.072;7.800;2024-01-07T08:12:05;6.97;;;3.93;;
63555;SDS011;49700;48.072;7.800;2024-01-07T08:14:31;5.28;;;3.55;;
63555;SDS011;49700;48.072;7.800;2024-01-07T08:16:57;4.22;;;3.42;;
63555;SDS011;49700;48.072;7.800;2024-01-07T08:19:22;5.13;;;4.37;;
63555;SDS011;49700;48.072;7.800;2024-01-07T08:21:48;6.57;;;5.00;;
63555;SDS011;49700;48.072;7.800;2024-01-07T08:24:13;7.43;;;3.60;;
63555;SDS011;49700;48.072;7.800;2024-01-07T08:26:38;7.00;;;3.17;;
63555;SDS011;49700;48.072;7.800;2024-01-07T08:29:04;6.77;;;5.03;;
63555;SDS011;49700;48.072;7.800;2024-01-07T08:31:30;7.90;;;4.53;;
63555;SDS011;49700;48.072;7.800;2024-01-07T08:33:56;5.97;;;4.50;;
63555;SDS011;49700;48.072;7.800;2024-01-07T08:36:22;8.80;;;4.27;;
63555;SDS011;49700;48.072;7.800;2024-01-07T08:38:48;9.70;;;6.13;;
63555;SDS011;49700;48.072;7.800;2024-01-07T08:41:16;8.23;;;5.60;;
63555;SDS011;49700;48.072;7.800;2024-01-07T08:43:42;7.75;;;4.22;;
63555;SDS011;49700;48.072;7.800;2024-01-07T08:46:09;14.68;;;6.95;;
63555;SDS011;49700;48.072;7.800;2024-01-07T08:48:34;10.73;;;5.70;;
63555;SDS011;49700;48.072;7.800;2024-01-07T08:50:59;13.90;;;6.47;;
63555;SDS011;49700;48.072;7.800;2024-01-07T08:53:25;14.57;;;7.47;;
63555;SDS011;49700;48.072;7.800;2024-01-07T08:55:50;11.50;;;7.67;;
63555;SDS011;49700;48.072;7.800;2024-01-07T08:58:16;11.63;;;6.77;;
63555;SDS011;49700;48.072;7.800;2024-01-07T09:00:42;12.30;;;6.30;;
63555;SDS011;49700;48.072;7.800;2024-01-07T09:03:09;12.52;;;7.28;;
63555;SDS011;49700;48.072;7.800;2024-01-07T09:05:34;13.73;;;7.05;;
63555;SDS011;49700;48.072;7.800;2024-01-07T09:08:00;19.03;;;10.10;;
63555;SDS011;49700;48.072;7.800;2024-01-07T09:10:26;14.13;;;8.47;;
63555;SDS011;49700;48.072;7.800;2024-01-07T09:12:51;14.90;;;8.00;;
63555;SDS011;49700;48.072;7.800;2024-01-07T09:15:18;13.95;;;8.07;;
63555;SDS011;49700;48.072;7.800;2024-01-07T09:17:45;11.73;;;6.65;;
63555;SDS011;49700;48.072;7.800;2024-01-07T09:20:11;24.45;;;7.65;;
63555;SDS011;49700;48.072;7.800;2024-01-07T09:22:37;13.32;;;8.05;;
63555;SDS011;49700;48.072;7.800;2024-01-07T09:25:03;15.10;;;8.77;;
63555;SDS011;49700;48.072;7.800;2024-01-07T09:27:29;14.30;;;8.40;;
63555;SDS011;49700;48.072;7.800;2024-01-07T09:29:55;13.70;;;7.70;;
63555;SDS011;49700;48.072;7.800;2024-01-07T09:32:21;15.30;;;9.20;;
63555;SDS011;49700;48.072;7.800;2024-01-07T09:34:46;7.47;;;6.67;;
63555;SDS011;49700;48.072;7.800;2024-01-07T09:37:11;13.50;;;8.40;;
63555;SDS011;49700;48.072;7.800;2024-01-07T09:39:40;15.23;;;8.20;;
63555;SDS011;49700;48.072;7.800;2024-01-07T09:42:13;12.70;;;6.63;;
63555;SDS011;49700;48.072;7.800;2024-01-07T09:44:42;11.90;;;7.50;;
63555;SDS011;49700;48.072;7.800;2024-01-07T09:47:12;14.65;;;7.38;;
63555;SDS011;49700;48.072;7.800;2024-01-07T09:49:39;15.35;;;7.00;;
63555;SDS011;49700;48.072;7.800;2024-01-07T09:52:05;17.05;;;8.15;;
63555;SDS011;49700;48.072;7.800;2024-01-07T09:54:31;12.82;;;7.30;;
63555;SDS011;49700;48.072;7.800;2024-01-07T09:57:02;18.20;;;9.77;;
63555;SDS011;49700;48.072;7.800;2024-01-07T09:59:28;13.55;;;9.23;;
63555;SDS011;49700;48.072;7.800;2024-01-07T10:01:55;16.15;;;8.80;;
63555;SDS011;49700;48.072;7.800;2024-01-07T10:04:21;11.75;;;8.45;;
63555;SDS011;49700;48.072;7.800;2024-01-07T10:06:47;14.98;;;9.05;;
63555;SDS011;49700;48.072;7.800;2024-01-07T10:09:14;20.75;;;12.80;;
63555;SDS011;49700;48.072;7.800;2024-01-07T10:11:40;11.90;;;7.22;;
63555;SDS011;49700;48.072;7.800;2024-01-07T10:14:06;13.00;;;9.93;;
63555;SDS011;49700;48.072;7.800;2024-01-07T10:16:31;16.30;;;9.13;;
63555;SDS011;49700;48.072;7.800;2024-01-07T10:18:58;18.80;;;8.95;;
63555;SDS011;49700;48.072;7.800;2024-01-07T10:21:23;15.87;;;7.30;;
63555;SDS011;49700;48.072;7.800;2024-01-07T10:23:49;10.67;;;8.00;;
63555;SDS011;49700;48.072;7.800;2024-01-07T10:26:15;8.40;;;6.83;;
63555;SDS011;49700;48.072;7.800;2024-01-07T10:28:41;13.57;;;6.80;;
63555;SDS011;49700;48.072;7.800;2024-01-07T10:31:08;10.50;;;6.95;;
63555;SDS011;49700;48.072;7.800;2024-01-07T10:33:34;11.83;;;9.10;;
63555;SDS011;49700;48.072;7.800;2024-01-07T10:36:05;11.87;;;7.10;;
63555;SDS011;49700;48.072;7.800;2024-01-07T10:38:31;13.27;;;8.25;;
63555;SDS011;49700;48.072;7.800;2024-01-07T10:41:00;12.55;;;5.45;;
63555;SDS011;49700;48.072;7.800;2024-01-07T10:43:29;8.98;;;5.35;;
63555;SDS011;49700;48.072;7.800;2024-01-07T10:45:55;10.18;;;5.82;;
63555;SDS011;49700;48.072;7.800;2024-01-07T10:48:20;10.57;;;5.63;;
63555;SDS011;49700;48.072;7.800;2024-01-07T10:50:49;9.98;;;6.05;;
63555;SDS011;49700;48.072;7.800;2024-01-07T10:53:20;9.00;;;5.50;;
63555;SDS011;49700;48.072;7.800;2024-01-07T10:55:48;12.07;;;6.72;;
63555;SDS011;49700;48.072;7.800;2024-01-07T10:58:19;4.90;;;4.13;;
63555;SDS011;49700;48.072;7.800;2024-01-07T11:00:45;7.28;;;4.63;;
63555;SDS011;49700;48.072;7.800;2024-01-07T11:03:27;8.20;;;5.28;;
63555;SDS011;49700;48.072;7.800;2024-01-07T11:05:59;7.55;;;5.22;;
63555;SDS011;49700;48.072;7.800;2024-01-07T11:11:46;8.60;;;5.30;;
63555;SDS011;49700;48.072;7.800;2024-01-07T11:17:07;10.20;;;5.40;;
63555;SDS011;49700;48.072;7.800;2024-01-07T11:19:35;8.77;;;6.03;;
63555;SDS011;49700;48.072;7.800;2024-01-07T11:24:57;7.63;;;5.97;;
63555;SDS011;49700;48.072;7.800;2024-01-07T11:27:30;9.25;;;4.80;;
63555;SDS011;49700;48.072;7.800;2024-01-07T11:30:03;9.15;;;5.65;;
63555;SDS011;49700;48.072;7.800;2024-01-07T11:32:33;12.70;;;7.63;;
63555;SDS011;49700;48.072;7.800;2024-01-07T11:35:00;11.27;;;7.47;;
63555;SDS011;49700;48.072;7.800;2024-01-07T11:37:26;14.20;;;8.10;;
63555;SDS011;49700;48.072;7.800;2024-01-07T11:39:55;9.30;;;6.53;;
63555;SDS011;49700;48.072;7.800;2024-01-07T11:42:22;14.93;;;6.90;;
63555;SDS011;49700;48.072;7.800;2024-01-07T11:44:49;9.80;;;5.17;;
63555;SDS011;49700;48.072;7.800;2024-01-07T11:47:18;12.35;;;8.48;;
63555;SDS011;49700;48.072;7.800;2024-01-07T11:49:45;7.75;;;6.10;;
63555;SDS011;49700;48.072;7.800;2024-01-07T11:52:11;10.17;;;5.87;;
63555;SDS011;49700;48.072;7.800;2024-01-07T11:54:39;10.17;;;6.00;;
63555;SDS011;49700;48.072;7.800;2024-01-07T11:57:05;10.07;;;7.53;;
63555;SDS011;49700;48.072;7.800;2024-01-07T11:59:31;6.70;;;5.43;;
63555;SDS011;49700;48.072;7.800;2024-01-07T12:01:57;10.03;;;5.23;;
63555;SDS011;49700;48.072;7.800;2024-01-07T12:04:23;12.35;;;6.13;;
63555;SDS011;49700;48.072;7.800;2024-01-07T12:06:49;7.10;;;5.20;;
63555;SDS011;49700;48.072;7.800;2024-01-07T12:09:15;7.20;;;4.67;;
63555;SDS011;49700;48.072;7.800;2024-01-07T12:11:40;7.15;;;5.38;;
63555;SDS011;49700;48.072;7.800;2024-01-07T12:14:07;7.60;;;4.97;;
63555;SDS011;49700;48.072;7.800;2024-01-07T12:16:34;6.45;;;5.07;;
63555;SDS011;49700;48.072;7.800;2024-01-07T12:19:00;5.77;;;5.17;;
63555;SDS011;49700;48.072;7.800;2024-01-07T12:21:25;8.80;;;5.33;;
63555;SDS011;49700;48.072;7.800;2024-01-07T12:23:53;8.40;;;5.13;;
63555;SDS011;49700;48.072;7.800;2024-01-07T12:26:19;7.50;;;5.75;;
63555;SDS011;49700;48.072;7.800;2024-01-07T12:28:51;8.90;;;6.45;;
63555;SDS011;49700;48.072;7.800;2024-01-07T12:31:18;8.70;;;6.22;;
63555;SDS011;49700;48.072;7.800;2024-01-07T12:33:43;6.90;;;4.87;;
63555;SDS011;49700;48.072;7.800;2024-01-07T12:36:08;8.10;;;5.63;;
63555;SDS011;49700;48.072;7.800;2024-01-07T12:38:37;7.77;;;5.47;;
63555;SDS011;49700;48.072;7.800;2024-01-07T12:41:03;10.52;;;5.95;;
63555;SDS011;49700;48.072;7.800;2024-01-07T12:43:28;10.47;;;6.63;;
63555;SDS011;49700;48.072;7.800;2024-01-07T12:45:54;9.33;;;5.97;;
63555;SDS011;49700;48.072;7.800;2024-01-07T12:48:21;10.45;;;5.57;;
63555;SDS011;49700;48.072;7.800;2024-01-07T12:50:47;9.67;;;5.30;;
63555;SDS011;49700;48.072;7.800;2024-01-07T12:53:13;5.47;;;4.60;;
63555;SDS011;49700;48.072;7.800;2024-01-07T12:55:39;7.80;;;6.03;;
63555;SDS011;49700;48.072;7.800;2024-01-07T12:58:05;7.17;;;5.10;;
63555;SDS011;49700;48.072;7.800;2024-01-07T13:00:30;9.37;;;6.03;;
63555;SDS011;49700;48.072;7.800;2024-01-07T13:02:55;12.57;;;7.00;;
63555;SDS011;49700;48.072;7.800;2024-01-07T13:05:21;9.77;;;7.23;;
63555;SDS011;49700;48.072;7.800;2024-01-07T13:07:47;9.10;;;6.40;;
63555;SDS011;49700;48.072;7.800;2024-01-07T13:10:12;10.43;;;6.67;;
63555;SDS011;49700;48.072;7.800;2024-01-07T13:12:38;12.97;;;6.67;;
63555;SDS011;49700;48.072;7.800;2024-01-07T13:15:04;8.85;;;5.90;;
63555;SDS011;49700;48.072;7.800;2024-01-07T13:17:30;10.43;;;6.00;;
63555;SDS011;49700;48.072;7.800;2024-01-07T13:19:57;10.50;;;7.32;;
63555;SDS011;49700;48.072;7.800;2024-01-07T13:22:23;11.43;;;7.37;;
63555;SDS011;49700;48.072;7.800;2024-01-07T13:24:49;8.43;;;5.15;;
63555;SDS011;49700;48.072;7.800;2024-01-07T13:27:15;9.73;;;7.40;;
63555;SDS011;49700;48.072;7.800;2024-01-07T13:29:43;10.40;;;6.35;;
63555;SDS011;49700;48.072;7.800;2024-01-07T13:32:10;12.38;;;8.32;;
63555;SDS011;49700;48.072;7.800;2024-01-07T13:34:36;12.43;;;8.43;;
63555;SDS011;49700;48.072;7.800;2024-01-07T13:37:01;10.40;;;6.53;;
63555;SDS011;49700;48.072;7.800;2024-01-07T13:39:28;14.45;;;9.30;;
63555;SDS011;49700;48.072;7.800;2024-01-07T13:41:55;8.70;;;6.38;;
63555;SDS011;49700;48.072;7.800;2024-01-07T13:44:20;15.07;;;8.17;;
63555;SDS011;49700;48.072;7.800;2024-01-07T13:46:46;7.70;;;5.37;;
63555;SDS011;49700;48.072;7.800;2024-01-07T13:49:12;9.85;;;6.30;;
63555;SDS011;49700;48.072;7.800;2024-01-07T13:51:39;9.15;;;6.18;;
63555;SDS011;49700;48.072;7.800;2024-01-07T13:54:05;8.77;;;6.05;;
63555;SDS011;49700;48.072;7.800;2024-01-07T13:56:31;11.13;;;6.10;;
63555;SDS011;49700;48.072;7.800;2024-01-07T13:58:56;9.07;;;5.87;;
63555;SDS011;49700;48.072;7.800;2024-01-07T14:01:21;12.73;;;6.60;;
63555;SDS011;49700;48.072;7.800;2024-01-07T14:03:47;12.03;;;6.90;;
63555;SDS011;49700;48.072;7.800;2024-01-07T14:06:13;6.30;;;4.70;;
63555;SDS011;49700;48.072;7.800;2024-01-07T14:08:38;8.70;;;5.10;;
63555;SDS011;49700;48.072;7.800;2024-01-07T14:11:04;11.23;;;5.40;;
63555;SDS011;49700;48.072;7.800;2024-01-07T14:13:32;7.80;;;5.25;;
63555;SDS011;49700;48.072;7.800;2024-01-07T14:15:57;7.20;;;5.50;;
63555;SDS011;49700;48.072;7.800;2024-01-07T14:18:23;11.50;;;8.93;;
63555;SDS011;49700;48.072;7.800;2024-01-07T14:20:48;7.57;;;5.90;;
63555;SDS011;49700;48.072;7.800;2024-01-07T14:23:14;6.83;;;4.87;;
63555;SDS011;49700;48.072;7.800;2024-01-07T14:25:39;9.10;;;5.57;;
63555;SDS011;49700;48.072;7.800;2024-01-07T14:28:05;5.43;;;4.60;;
63555;SDS011;49700;48.072;7.800;2024-01-07T14:30:31;6.83;;;4.63;;
63555;SDS011;49700;48.072;7.800;2024-01-07T14:32:56;5.63;;;4.50;;
63555;SDS011;49700;48.072;7.800;2024-01-07T14:35:22;8.70;;;5.13;;
63555;SDS011;49700;48.072;7.800;2024-01-07T14:37:51;5.40;;;4.27;;
63555;SDS011;49700;48.072;7.800;2024-01-07T14:40:17;4.93;;;3.92;;
63555;SDS011;49700;48.072;7.800;2024-01-07T14:42:43;5.10;;;4.30;;